Time;durP1;ratioP1;P1;durP2;ratioP2;P2;SDS_P1;SDS_P2;PMS_P1;PMS_P2;Temp;Humidity;BMP_temperature;BMP_pressure;BME280_temperature;BME280_humidity;BME280_pressure;Samples;Min_cycle;Max_cycle;Signal;HPM_P1;HPM_P2
2021/12/11 00:00:28;;;;;;;;;;;;;;;;;;1032896;28;2743;-64
2021/12/11 00:01:17;;;;;;;;;;;;;;;;;;1038324;28;3689;-65
2021/12/11 00:01:52;;;;;;;;;;;;;;;;;;1040004;28;3847;-64
2021/12/11 00:02:26;;;;;;;;;;;;;;;;;;1040252;28;1874;-65
2021/12/11 00:02:56;;;;;;;;;;;;;;;;;;1039429;28;4258;-64
2021/12/11 00:03:28;;;;;;;;;;;;;;;;;;1039296;28;3157;-64
2021/12/11 00:04:00;;;;;;;;;;;;;;;;;;1039677;28;4159;-65
2021/12/11 00:04:33;;;;;;;;;;;;;;;;;;1040126;28;1986;-64
2021/12/11 00:05:04;;;;;;;;;;;;;;;;;;1040041;28;3862;-65
2021/12/11 00:05:35;;;;;;;;;;;;;;;;;;1038948;28;2750;-66
2021/12/11 00:06:07;;;;;;;;;;;;;;;;;;1035957;28;3988;-66
2021/12/11 00:06:43;;;;;;;;;;;;;;;;;;1035341;28;2403;-64
2021/12/11 00:07:15;;;;;;;;;;;;;;;;;;1035951;28;3846;-65
2021/12/11 00:07:45;;;;;;;;;;;;;;;;;;1035159;28;4053;-65
2021/12/11 00:08:17;;;;;;;;;;;;;;;;;;1036691;28;1832;-65
2021/12/11 00:08:49;;;;;;;;;;;;;;;;;;1040708;28;4056;-65
2021/12/11 00:09:28;;;;;;;;;;;;;;;;;;1039030;28;2998;-65
2021/12/11 00:10:02;;;;;;;;;;;;;;;;;;1039168;28;3946;-64
2021/12/11 00:10:36;;;;;;;;;;;;;;;;;;1040690;28;2000;-64
2021/12/11 00:11:08;;;;;;;;;;;;;;;;;;1039099;28;4074;-66
2021/12/11 00:11:41;;;;;;;;;;;;;;;;;;1039904;28;4064;-65
2021/12/11 00:12:15;;;;;;;;;;;;;;;;;;1039739;28;2172;-66
2021/12/11 00:12:48;;;;;;;;;;;;;;;;;;1040268;28;3882;-64
2021/12/11 00:13:21;;;;;;;;;;;;;;;;;;1040246;28;1833;-66
2021/12/11 00:13:56;;;;;;;;;;;;;;;;;;1039658;28;4054;-64
2021/12/11 00:14:31;;;;;;;;;;;;;;;;;;1039508;28;2088;-64
2021/12/11 00:15:21;;;;;;;;;;;;;;;;;;1040018;28;4322;-64
2021/12/11 00:15:53;;;;;;;;;;;;;;;;;;1039006;28;4230;-66
2021/12/11 00:16:24;;;;;;;;;;;;;;;;;;1041013;28;1658;-65
2021/12/11 00:16:54;;;;;;;;;;;;;;;;;;1039390;28;3913;-64
2021/12/11 00:17:26;;;;;;;;;;;;;;;;;;1041316;28;1831;-65
2021/12/11 00:18:08;;;;;;;;;;;;;;;;;;1039109;28;3912;-65
2021/12/11 00:18:38;;;;;;;;;;;;;;;;;;1039740;28;2023;-64
2021/12/11 00:19:11;;;;;;;;;;;;;;;;;;1041422;28;3767;-65
2021/12/11 00:19:42;;;;;;;;;;;;;;;;;;1039949;28;4054;-66
2021/12/11 00:20:20;;;;;;;;;;;;;;;;;;1037202;28;3173;-64
2021/12/11 00:20:55;;;;;;;;;;;;;;;;;;1041230;28;4174;-65
2021/12/11 00:21:25;;;;;;;;;;;;;;;;;;1039876;28;1751;-66
2021/12/11 00:22:22;;;;;;;;;;;;;;;;;;1039101;28;4084;-64
2021/12/11 00:22:53;;;;;;;;;;;;;;;;;;1036252;28;4056;-64
2021/12/11 00:23:27;;;;;;;;;;;;;;;;;;1039443;28;3118;-65
2021/12/11 00:24:03;;;;;;;;;;;;;;;;;;1040421;28;3867;-64
2021/12/11 00:24:35;;;;;;;;;;;;;;;;;;1040473;28;1987;-64
2021/12/11 00:25:09;;;;;;;;;;;;;;;;;;1039570;28;4106;-65
2021/12/11 00:25:43;;;;;;;;;;;;;;;;;;1040135;28;4046;-66
2021/12/11 00:26:14;;;;;;;;;;;;;;;;;;1040208;28;1652;-65
2021/12/11 00:26:47;;;;;;;;;;;;;;;;;;1039927;28;3901;-64
2021/12/11 00:27:20;;;;;;;;;;;;;;;;;;1041698;28;1891;-65
2021/12/11 00:27:52;;;;;;;;;;;;;;;;;;1040056;28;4062;-65
2021/12/11 00:28:22;;;;;;;;;;;;;;;;;;1041958;28;1798;-65
2021/12/11 00:28:52;;;;;;;;;;;;;;;;;;1040458;28;3977;-65
2021/12/11 00:29:26;;;;;;;;;;;;;;;;;;1042129;28;1846;-64
2021/12/11 00:29:56;;;;;;;;;;;;;;;;;;1040788;28;4048;-64
2021/12/11 00:30:28;;;;;;;;;;;;;;;;;;1040572;28;3241;-65
2021/12/11 00:30:58;;;;;;;;;;;;;;;;;;1040805;28;4090;-65
2021/12/11 00:31:29;;;;;;;;;;;;;;;;;;1041119;28;1984;-65
2021/12/11 00:32:12;;;;;;;;;;;;;;;;;;1040350;28;3964;-64
2021/12/11 00:32:43;;;;;;;;;;;;;;;;;;1041464;28;4159;-64
2021/12/11 00:33:39;;;;;;;;;;;;;;;;;;1040816;28;1841;-65
2021/12/11 00:34:10;;;;;;;;;;;;;;;;;;1036121;28;3943;-64
2021/12/11 00:34:43;;;;;;;;;;;;;;;;;;1040575;28;6188;-64
2021/12/11 00:35:16;;;;;;;;;;;;;;;;;;1040309;28;2693;-65
2021/12/11 00:35:46;;;;;;;;;;;;;;;;;;1041114;28;4039;-65
2021/12/11 00:36:20;;;;;;;;;;;;;;;;;;1040696;28;2062;-64
2021/12/11 00:36:52;;;;;;;;;;;;;;;;;;1040754;28;4050;-65
2021/12/11 00:37:23;;;;;;;;;;;;;;;;;;1040186;28;2346;-64
2021/12/11 00:37:59;;;;;;;;;;;;;;;;;;1039294;28;4070;-65
2021/12/11 00:38:34;;;;;;;;;;;;;;;;;;1041662;28;1961;-65
2021/12/11 00:39:08;;;;;;;;;;;;;;;;;;1041536;28;4149;-64
2021/12/11 00:39:44;;;;;;;;;;;;;;;;;;1039549;28;3868;-65
2021/12/11 00:40:20;;;;;;;;;;;;;;;;;;1041304;28;2752;-65
2021/12/11 00:40:51;;;;;;;;;;;;;;;;;;1040343;28;4080;-64
2021/12/11 00:41:22;;;;;;;;;;;;;;;;;;1040854;28;2070;-64
2021/12/11 00:41:55;;;;;;;;;;;;;;;;;;1040163;28;4064;-64
2021/12/11 00:42:32;;;;;;;;;;;;;;;;;;1040594;28;1718;-65
2021/12/11 00:43:04;;;;;;;;;;;;;;;;;;1040524;28;3901;-65
2021/12/11 00:43:35;;;;;;;;;;;;;;;;;;1042407;28;2118;-65
2021/12/11 00:44:06;;;;;;;;;;;;;;;;;;1040070;28;4061;-65
2021/12/11 00:44:38;;;;;;;;;;;;;;;;;;1041980;28;1655;-64
2021/12/11 00:45:14;;;;;;;;;;;;;;;;;;1038943;28;3900;-64
2021/12/11 00:45:46;;;;;;;;;;;;;;;;;;1040102;28;4087;-65
2021/12/11 00:46:22;;;;;;;;;;;;;;;;;;1040628;28;2425;-64
2021/12/11 00:46:52;;;;;;;;;;;;;;;;;;1039292;28;3916;-65
2021/12/11 00:47:24;;;;;;;;;;;;;;;;;;1040946;28;2139;-65
2021/12/11 00:48:00;;;;;;;;;;;;;;;;;;1039999;28;3873;-65
2021/12/11 00:48:30;;;;;;;;;;;;;;;;;;1040789;28;2918;-66
2021/12/11 00:49:09;;;;;;;;;;;;;;;;;;1040709;28;3857;-65
2021/12/11 00:49:54;;;;;;;;;;;;;;;;;;1039852;28;4232;-64
2021/12/11 00:50:26;;;;;;;;;;;;;;;;;;1040517;28;2747;-64
2021/12/11 00:50:59;;;;;;;;;;;;;;;;;;1040335;28;4073;-65
2021/12/11 00:51:29;;;;;;;;;;;;;;;;;;1040810;28;2442;-65
2021/12/11 00:52:00;;;;;;;;;;;;;;;;;;1040037;28;4029;-66
2021/12/11 00:52:39;;;;;;;;;;;;;;;;;;1041646;28;1631;-65
2021/12/11 00:53:14;;;;;;;;;;;;;;;;;;1041323;28;3867;-66
2021/12/11 00:53:50;;;;;;;;;;;;;;;;;;1040257;28;4084;-64
2021/12/11 00:54:20;;;;;;;;;;;;;;;;;;1040976;28;1847;-64
2021/12/11 00:54:50;;;;;;;;;;;;;;;;;;1041222;28;4039;-65
2021/12/11 00:55:30;;;;;;;;;;;;;;;;;;1040651;28;1830;-65
2021/12/11 00:56:03;;;;;;;;;;;;;;;;;;1036071;28;3997;-65
2021/12/11 00:56:35;;;;;;;;;;;;;;;;;;1036569;28;2723;-64
2021/12/11 00:57:05;;;;;;;;;;;;;;;;;;1036385;28;3925;-65
2021/12/11 00:57:35;;;;;;;;;;;;;;;;;;1036479;28;2571;-64
2021/12/11 00:58:17;;;;;;;;;;;;;;;;;;1040096;28;3949;-64
2021/12/11 00:58:50;;;;;;;;;;;;;;;;;;1040925;28;4063;-65
2021/12/11 00:59:21;;;;;;;;;;;;;;;;;;1041245;28;1681;-64
2021/12/11 00:59:58;;;;;;;;;;;;;;;;;;1040066;28;4069;-65
2021/12/11 01:00:32;;;;;;;;;;;;;;;;;;1039754;28;2723;-64
2021/12/11 01:01:03;;;;;;;;;;;;;;;;;;1035381;28;3911;-66
2021/12/11 01:01:38;;;;;;;;;;;;;;;;;;1036589;28;2002;-65
2021/12/11 01:02:08;;;;;;;;;;;;;;;;;;1036385;28;4107;-66
2021/12/11 01:02:39;;;;;;;;;;;;;;;;;;1037714;28;4073;-65
2021/12/11 01:03:10;;;;;;;;;;;;;;;;;;1040323;28;1930;-64
2021/12/11 01:03:46;;;;;;;;;;;;;;;;;;1040582;28;4052;-64
2021/12/11 01:04:19;;;;;;;;;;;;;;;;;;1039931;28;2852;-64
2021/12/11 01:04:49;;;;;;;;;;;;;;;;;;1040062;28;3914;-65
2021/12/11 01:05:20;;;;;;;;;;;;;;;;;;1040310;28;1827;-66
2021/12/11 01:05:52;;;;;;;;;;;;;;;;;;1040149;28;3856;-65
2021/12/11 01:06:28;;;;;;;;;;;;;;;;;;1041328;28;1785;-65
2021/12/11 01:07:03;;;;;;;;;;;;;;;;;;1038691;28;4142;-65
2021/12/11 01:07:34;;;;;;;;;;;;;;;;;;1041353;28;2413;-65
2021/12/11 01:08:20;;;;;;;;;;;;;;;;;;1040446;28;4216;-65
2021/12/11 01:08:56;;;;;;;;;;;;;;;;;;1041596;28;3863;-65
2021/12/11 01:09:39;;;;;;;;;;;;;;;;;;1042302;28;1746;-65
2021/12/11 01:10:21;;;;;;;;;;;;;;;;;;1040738;28;3737;-64
2021/12/11 01:10:56;;;;;;;;;;;;;;;;;;1041599;28;3950;-64
2021/12/11 01:11:47;;;;;;;;;;;;;;;;;;1040968;28;1917;-65
2021/12/11 01:12:27;;;;;;;;;;;;;;;;;;1026973;28;3878;-64
2021/12/11 01:13:02;;;;;;;;;;;;;;;;;;1040282;28;4038;-65
2021/12/11 01:13:35;;;;;;;;;;;;;;;;;;1041462;28;1908;-65
2021/12/11 01:14:19;;;;;;;;;;;;;;;;;;1040883;28;3854;-64
2021/12/11 01:14:52;;;;;;;;;;;;;;;;;;1036273;28;3917;-65
2021/12/11 01:15:25;;;;;;;;;;;;;;;;;;1035426;28;2676;-64
2021/12/11 01:16:00;;;;;;;;;;;;;;;;;;1035787;28;3901;-65
2021/12/11 01:16:30;;;;;;;;;;;;;;;;;;1039159;28;1903;-64
2021/12/11 01:17:06;;;;;;;;;;;;;;;;;;1040092;28;3864;-64
2021/12/11 01:17:44;;;;;;;;;;;;;;;;;;1040655;28;2049;-65
2021/12/11 01:18:49;;;;;;;;;;;;;;;;;;1039877;28;3890;-65
2021/12/11 01:19:21;;;;;;;;;;;;;;;;;;1039017;28;2804;-65
2021/12/11 01:19:56;;;;;;;;;;;;;;;;;;1040306;28;4069;-64
2021/12/11 01:20:35;;;;;;;;;;;;;;;;;;1040924;28;1997;-64
2021/12/11 01:21:59;;;;;;;;;;;;;;;;;;1039463;28;4075;-65
2021/12/11 01:22:20;;;;;;;;;;;;;;;;;;1040880;28;3982;-66
2021/12/11 01:22:51;;;;;;;;;;;;;;;;;;1040839;28;4093;-67
2021/12/11 01:24:43;;;;;;;;;;;;;;;;;;1041010;28;1734;-66
2021/12/11 01:25:19;;;;;;;;;;;;;;;;;;1036308;28;3880;-65
2021/12/11 01:25:49;;;;;;;;;;;;;;;;;;1035754;28;3879;-65
2021/12/11 01:26:21;;;;;;;;;;;;;;;;;;1037290;28;1997;-66
2021/12/11 01:26:51;;;;;;;;;;;;;;;;;;1036407;28;3902;-64
2021/12/11 01:27:23;;;;;;;;;;;;;;;;;;1040822;28;2831;-64
2021/12/11 01:27:56;;;;;;;;;;;;;;;;;;1040600;28;3881;-65
2021/12/11 01:28:26;;;;;;;;;;;;;;;;;;1041166;28;1810;-65
2021/12/11 01:28:57;;;;;;;;;;;;;;;;;;1039737;28;4030;-65
2021/12/11 01:29:28;;;;;;;;;;;;;;;;;;1041363;28;1748;-65
2021/12/11 01:29:59;;;;;;;;;;;;;;;;;;1040448;28;3865;-64
2021/12/11 01:30:32;;;;;;;;;;;;;;;;;;1040096;28;2587;-64
2021/12/11 01:31:05;;;;;;;;;;;;;;;;;;1039620;28;3900;-65
2021/12/11 01:31:35;;;;;;;;;;;;;;;;;;1041690;28;1876;-65
2021/12/11 01:32:06;;;;;;;;;;;;;;;;;;1035902;28;4095;-65
2021/12/11 01:32:37;;;;;;;;;;;;;;;;;;1030962;28;2990;-65
2021/12/11 01:33:08;;;;;;;;;;;;;;;;;;1032306;28;4000;-66
2021/12/11 01:33:38;;;;;;;;;;;;;;;;;;1033222;28;1742;-66
2021/12/11 01:34:10;;;;;;;;;;;;;;;;;;1037102;28;3835;-64
2021/12/11 01:34:41;;;;;;;;;;;;;;;;;;1040967;28;4122;-65
2021/12/11 01:35:12;;;;;;;;;;;;;;;;;;1040764;28;2748;-64
2021/12/11 01:35:42;;;;;;;;;;;;;;;;;;1041033;28;3921;-64
2021/12/11 01:36:13;;;;;;;;;;;;;;;;;;1041541;28;2778;-64
2021/12/11 01:36:44;;;;;;;;;;;;;;;;;;1039968;28;4103;-64
2021/12/11 01:37:15;;;;;;;;;;;;;;;;;;1041669;28;1791;-64
2021/12/11 01:37:46;;;;;;;;;;;;;;;;;;1039687;28;3890;-66
2021/12/11 01:38:18;;;;;;;;;;;;;;;;;;1035385;28;1804;-65
2021/12/11 01:38:53;;;;;;;;;;;;;;;;;;1035622;28;4459;-65
2021/12/11 01:39:26;;;;;;;;;;;;;;;;;;1035781;28;2084;-65
2021/12/11 01:39:56;;;;;;;;;;;;;;;;;;1037416;28;4223;-65
2021/12/11 01:40:30;;;;;;;;;;;;;;;;;;1040162;28;2690;-65
2021/12/11 01:41:04;;;;;;;;;;;;;;;;;;1040950;28;4098;-66
2021/12/11 01:41:35;;;;;;;;;;;;;;;;;;1040908;28;1934;-65
2021/12/11 01:42:10;;;;;;;;;;;;;;;;;;1040783;28;3833;-65
2021/12/11 01:42:42;;;;;;;;;;;;;;;;;;1039940;28;4074;-66
2021/12/11 01:43:12;;;;;;;;;;;;;;;;;;1041495;28;2020;-66
2021/12/11 01:43:43;;;;;;;;;;;;;;;;;;1040560;28;4103;-64
2021/12/11 01:44:15;;;;;;;;;;;;;;;;;;1040796;28;1570;-64
2021/12/11 01:44:46;;;;;;;;;;;;;;;;;;1038847;28;3919;-66
2021/12/11 01:45:17;;;;;;;;;;;;;;;;;;1038093;28;2711;-65
2021/12/11 01:45:48;;;;;;;;;;;;;;;;;;1037777;28;4004;-65
2021/12/11 01:46:19;;;;;;;;;;;;;;;;;;1038303;28;2255;-64
2021/12/11 01:46:50;;;;;;;;;;;;;;;;;;1037857;28;5441;-65
2021/12/11 01:47:24;;;;;;;;;;;;;;;;;;1038775;28;1909;-64
2021/12/11 01:47:55;;;;;;;;;;;;;;;;;;1040301;28;3836;-65
2021/12/11 01:48:29;;;;;;;;;;;;;;;;;;1040832;28;1970;-66
2021/12/11 01:49:03;;;;;;;;;;;;;;;;;;1039984;28;4004;-65
2021/12/11 01:49:34;;;;;;;;;;;;;;;;;;1041198;28;1792;-65
2021/12/11 01:50:07;;;;;;;;;;;;;;;;;;1041270;28;4046;-65
2021/12/11 01:50:42;;;;;;;;;;;;;;;;;;1041035;28;2810;-64
2021/12/11 01:51:18;;;;;;;;;;;;;;;;;;1040689;28;3844;-65
2021/12/11 01:51:53;;;;;;;;;;;;;;;;;;1040756;28;4039;-65
2021/12/11 01:52:32;;;;;;;;;;;;;;;;;;1041167;28;1973;-64
2021/12/11 01:53:06;;;;;;;;;;;;;;;;;;1041077;28;3907;-66
2021/12/11 01:53:39;;;;;;;;;;;;;;;;;;1042075;28;1695;-65
2021/12/11 01:54:19;;;;;;;;;;;;;;;;;;1039965;28;3666;-64
2021/12/11 01:54:49;;;;;;;;;;;;;;;;;;1040544;28;3876;-65
2021/12/11 01:55:23;;;;;;;;;;;;;;;;;;1040917;28;2507;-64
2021/12/11 01:55:58;;;;;;;;;;;;;;;;;;1040411;28;4062;-65
2021/12/11 01:56:29;;;;;;;;;;;;;;;;;;1040767;28;1811;-65
2021/12/11 01:57:03;;;;;;;;;;;;;;;;;;1040351;28;4029;-65
2021/12/11 01:57:33;;;;;;;;;;;;;;;;;;1040910;28;1724;-64
2021/12/11 01:58:05;;;;;;;;;;;;;;;;;;1040771;28;4111;-65
2021/12/11 01:58:38;;;;;;;;;;;;;;;;;;1036519;28;1885;-64
2021/12/11 01:59:11;;;;;;;;;;;;;;;;;;1036271;28;4033;-67
2021/12/11 01:59:43;;;;;;;;;;;;;;;;;;1036358;28;4129;-64
2021/12/11 02:00:16;;;;;;;;;;;;;;;;;;1034000;28;2281;-64
2021/12/11 02:00:51;;;;;;;;;;;;;;;;;;1040600;28;3867;-64
2021/12/11 02:01:24;;;;;;;;;;;;;;;;;;1040329;28;2310;-66
2021/12/11 02:01:57;;;;;;;;;;;;;;;;;;1040503;28;3909;-66
2021/12/11 02:02:35;;;;;;;;;;;;;;;;;;1040439;28;2851;-66
2021/12/11 02:03:10;;;;;;;;;;;;;;;;;;1040201;28;4084;-65
2021/12/11 02:03:41;;;;;;;;;;;;;;;;;;1041052;28;4060;-65
2021/12/11 02:04:12;;;;;;;;;;;;;;;;;;1039444;28;1772;-66
2021/12/11 02:04:44;;;;;;;;;;;;;;;;;;1040142;28;3902;-64
2021/12/11 02:05:18;;;;;;;;;;;;;;;;;;1040863;28;1782;-65
2021/12/11 02:05:49;;;;;;;;;;;;;;;;;;1039496;28;3890;-64
2021/12/11 02:06:19;;;;;;;;;;;;;;;;;;1039951;28;2098;-66
2021/12/11 02:06:52;;;;;;;;;;;;;;;;;;1041274;28;4221;-65
2021/12/11 02:07:25;;;;;;;;;;;;;;;;;;1040514;28;1669;-65
2021/12/11 02:07:58;;;;;;;;;;;;;;;;;;1039986;28;3791;-66
2021/12/11 02:08:30;;;;;;;;;;;;;;;;;;1040943;28;1909;-64
2021/12/11 02:09:13;;;;;;;;;;;;;;;;;;1040500;28;4034;-65
2021/12/11 02:09:50;;;;;;;;;;;;;;;;;;1040027;28;3916;-65
2021/12/11 02:10:41;;;;;;;;;;;;;;;;;;1041841;28;1653;-65
2021/12/11 02:11:14;;;;;;;;;;;;;;;;;;1040776;28;3843;-66
2021/12/11 02:11:46;;;;;;;;;;;;;;;;;;1041054;28;4114;-65
2021/12/11 02:12:18;;;;;;;;;;;;;;;;;;1041442;28;1930;-64
2021/12/11 02:12:50;;;;;;;;;;;;;;;;;;1040110;28;4060;-64
2021/12/11 02:13:35;;;;;;;;;;;;;;;;;;1041787;28;1781;-64
2021/12/11 02:14:06;;;;;;;;;;;;;;;;;;1040916;28;4056;-65
2021/12/11 02:14:43;;;;;;;;;;;;;;;;;;1041634;28;1725;-65
2021/12/11 02:15:18;;;;;;;;;;;;;;;;;;1038756;28;3917;-65
2021/12/11 02:15:52;;;;;;;;;;;;;;;;;;1039871;28;3935;-64
2021/12/11 02:16:24;;;;;;;;;;;;;;;;;;1040627;28;1759;-64
2021/12/11 02:16:55;;;;;;;;;;;;;;;;;;1040486;28;4073;-64
2021/12/11 02:17:28;;;;;;;;;;;;;;;;;;1036163;28;2003;-64
2021/12/11 02:18:11;;;;;;;;;;;;;;;;;;1036745;28;3899;-65
2021/12/11 02:18:45;;;;;;;;;;;;;;;;;;1036762;28;4090;-65
2021/12/11 02:19:17;;;;;;;;;;;;;;;;;;1038577;28;2546;-65
2021/12/11 02:19:49;;;;;;;;;;;;;;;;;;1039751;28;4131;-64
2021/12/11 02:20:26;;;;;;;;;;;;;;;;;;1040420;28;1751;-66
2021/12/11 02:20:58;;;;;;;;;;;;;;;;;;1039609;28;4056;-64
2021/12/11 02:21:31;;;;;;;;;;;;;;;;;;1040097;28;1987;-65
2021/12/11 02:22:01;;;;;;;;;;;;;;;;;;1041078;28;4019;-66
2021/12/11 02:22:37;;;;;;;;;;;;;;;;;;1041306;28;1847;-64
2021/12/11 02:23:08;;;;;;;;;;;;;;;;;;1040388;28;4041;-65
2021/12/11 02:23:38;;;;;;;;;;;;;;;;;;1040836;28;2700;-64
2021/12/11 02:24:14;;;;;;;;;;;;;;;;;;1040587;28;3779;-64
2021/12/11 02:24:47;;;;;;;;;;;;;;;;;;1040319;28;4058;-65
2021/12/11 02:25:26;;;;;;;;;;;;;;;;;;1039665;28;2488;-65
2021/12/11 02:26:00;;;;;;;;;;;;;;;;;;1039633;28;3799;-66
2021/12/11 02:26:31;;;;;;;;;;;;;;;;;;1040748;28;2437;-65
2021/12/11 02:27:06;;;;;;;;;;;;;;;;;;1040784;28;4210;-64
2021/12/11 02:27:41;;;;;;;;;;;;;;;;;;1040985;28;2041;-65
2021/12/11 02:28:14;;;;;;;;;;;;;;;;;;1039966;28;3863;-66
2021/12/11 02:28:50;;;;;;;;;;;;;;;;;;1040992;28;4002;-64
2021/12/11 02:29:24;;;;;;;;;;;;;;;;;;1041002;28;1793;-65
2021/12/11 02:30:09;;;;;;;;;;;;;;;;;;1039845;28;3896;-65
2021/12/11 02:30:44;;;;;;;;;;;;;;;;;;1034670;28;3989;-66
2021/12/11 02:31:27;;;;;;;;;;;;;;;;;;1035733;28;2538;-66
2021/12/11 02:32:00;;;;;;;;;;;;;;;;;;1036626;28;4235;-66
2021/12/11 02:32:34;;;;;;;;;;;;;;;;;;1038845;28;2628;-65
2021/12/11 02:33:14;;;;;;;;;;;;;;;;;;1040984;28;4002;-65
2021/12/11 02:34:08;;;;;;;;;;;;;;;;;;1040158;28;3934;-66
2021/12/11 02:34:46;;;;;;;;;;;;;;;;;;1038782;28;2452;-65
2021/12/11 02:35:25;;;;;;;;;;;;;;;;;;1038886;28;3904;-64
2021/12/11 02:35:59;;;;;;;;;;;;;;;;;;1039455;28;4055;-65
2021/12/11 02:36:31;;;;;;;;;;;;;;;;;;1041414;28;1956;-67
2021/12/11 02:37:05;;;;;;;;;;;;;;;;;;1039170;28;3902;-65
2021/12/11 02:37:39;;;;;;;;;;;;;;;;;;1040105;28;2118;-65
2021/12/11 02:38:16;;;;;;;;;;;;;;;;;;1040492;28;3917;-65
2021/12/11 02:39:01;;;;;;;;;;;;;;;;;;1041077;28;3815;-65
2021/12/11 02:39:31;;;;;;;;;;;;;;;;;;1040366;28;2053;-64
2021/12/11 02:40:11;;;;;;;;;;;;;;;;;;1040723;28;4046;-65
2021/12/11 02:40:51;;;;;;;;;;;;;;;;;;1040456;28;3960;-66
2021/12/11 02:41:25;;;;;;;;;;;;;;;;;;1040796;28;1765;-64
2021/12/11 02:41:58;;;;;;;;;;;;;;;;;;1040727;28;4028;-65
2021/12/11 02:42:32;;;;;;;;;;;;;;;;;;1040694;28;1777;-66
2021/12/11 02:43:05;;;;;;;;;;;;;;;;;;1039543;28;4102;-65
2021/12/11 02:43:41;;;;;;;;;;;;;;;;;;1040046;28;1731;-66
2021/12/11 02:44:16;;;;;;;;;;;;;;;;;;1040263;28;3941;-64
2021/12/11 02:44:47;;;;;;;;;;;;;;;;;;1039390;28;4042;-65
2021/12/11 02:45:36;;;;;;;;;;;;;;;;;;1040128;28;2866;-64
2021/12/11 02:46:13;;;;;;;;;;;;;;;;;;1040521;28;3845;-65
2021/12/11 02:46:49;;;;;;;;;;;;;;;;;;1039516;28;3876;-64
2021/12/11 02:47:20;;;;;;;;;;;;;;;;;;1036388;28;1835;-66
2021/12/11 02:47:53;;;;;;;;;;;;;;;;;;1035102;28;4058;-64
2021/12/11 02:48:26;;;;;;;;;;;;;;;;;;1035898;28;1748;-65
2021/12/11 02:49:18;;;;;;;;;;;;;;;;;;1037184;28;3910;-64
2021/12/11 02:50:00;;;;;;;;;;;;;;;;;;1038587;28;4160;-65
2021/12/11 02:50:33;;;;;;;;;;;;;;;;;;1039655;28;2800;-64
2021/12/11 02:51:06;;;;;;;;;;;;;;;;;;1039462;28;4003;-65
2021/12/11 02:51:40;;;;;;;;;;;;;;;;;;1040358;28;2011;-67
2021/12/11 02:52:15;;;;;;;;;;;;;;;;;;1040954;28;4087;-67
2021/12/11 02:52:54;;;;;;;;;;;;;;;;;;1040075;28;3934;-65
2021/12/11 02:53:25;;;;;;;;;;;;;;;;;;1040030;28;3068;-65
2021/12/11 02:53:58;;;;;;;;;;;;;;;;;;1040773;28;4053;-64
2021/12/11 02:54:31;;;;;;;;;;;;;;;;;;1040962;28;1761;-65
2021/12/11 02:55:14;;;;;;;;;;;;;;;;;;1040333;28;3868;-65
2021/12/11 02:55:46;;;;;;;;;;;;;;;;;;1038949;28;4981;-66
2021/12/11 02:56:19;;;;;;;;;;;;;;;;;;1040997;28;2134;-65
2021/12/11 02:56:53;;;;;;;;;;;;;;;;;;1039701;28;4067;-65
2021/12/11 02:57:31;;;;;;;;;;;;;;;;;;1040317;28;2041;-65
2021/12/11 02:58:04;;;;;;;;;;;;;;;;;;1039177;28;4137;-66
2021/12/11 02:58:38;;;;;;;;;;;;;;;;;;1040583;28;1791;-65
2021/12/11 02:59:12;;;;;;;;;;;;;;;;;;1040649;28;4022;-65
2021/12/11 02:59:44;;;;;;;;;;;;;;;;;;1040204;28;3877;-65
2021/12/11 03:00:24;;;;;;;;;;;;;;;;;;1037178;28;2803;-64
2021/12/11 03:00:55;;;;;;;;;;;;;;;;;;1039821;28;4123;-65
2021/12/11 03:01:31;;;;;;;;;;;;;;;;;;1040601;28;1741;-65
2021/12/11 03:02:08;;;;;;;;;;;;;;;;;;1040368;28;3971;-64
2021/12/11 03:02:44;;;;;;;;;;;;;;;;;;1044949;28;1887;-65
2021/12/11 03:03:15;;;;;;;;;;;;;;;;;;1044768;28;3873;-65
2021/12/11 03:03:51;;;;;;;;;;;;;;;;;;1043661;28;3865;-65
2021/12/11 03:04:35;;;;;;;;;;;;;;;;;;1042684;28;1749;-65
2021/12/11 03:05:10;;;;;;;;;;;;;;;;;;1038840;28;4029;-65
2021/12/11 03:05:51;;;;;;;;;;;;;;;;;;1038843;28;4085;-65
2021/12/11 03:06:25;;;;;;;;;;;;;;;;;;1040627;28;1729;-65
2021/12/11 03:06:56;;;;;;;;;;;;;;;;;;1040424;28;4105;-65
2021/12/11 03:07:35;;;;;;;;;;;;;;;;;;1041153;28;2680;-65
2021/12/11 03:08:07;;;;;;;;;;;;;;;;;;1039669;28;3965;-65
2021/12/11 03:08:38;;;;;;;;;;;;;;;;;;1040669;28;1780;-66
2021/12/11 03:09:09;;;;;;;;;;;;;;;;;;1040575;28;4024;-64
2021/12/11 03:09:44;;;;;;;;;;;;;;;;;;1040930;28;4039;-65
2021/12/11 03:10:15;;;;;;;;;;;;;;;;;;1040790;28;2479;-65
2021/12/11 03:10:47;;;;;;;;;;;;;;;;;;1039685;28;3983;-65
2021/12/11 03:11:20;;;;;;;;;;;;;;;;;;1036785;28;1804;-64
2021/12/11 03:11:54;;;;;;;;;;;;;;;;;;1036802;28;4051;-64
2021/12/11 03:12:25;;;;;;;;;;;;;;;;;;1036668;28;1957;-65
2021/12/11 03:12:56;;;;;;;;;;;;;;;;;;1037578;28;4096;-66
2021/12/11 03:13:29;;;;;;;;;;;;;;;;;;1036666;28;2758;-66
2021/12/11 03:14:03;;;;;;;;;;;;;;;;;;1036024;28;3867;-66
2021/12/11 03:14:33;;;;;;;;;;;;;;;;;;1036476;28;1969;-64
2021/12/11 03:15:04;;;;;;;;;;;;;;;;;;1037277;28;4102;-64
2021/12/11 03:15:34;;;;;;;;;;;;;;;;;;1040807;28;2634;-65
2021/12/11 03:16:07;;;;;;;;;;;;;;;;;;1039658;28;4061;-65
2021/12/11 03:16:39;;;;;;;;;;;;;;;;;;1041130;28;1779;-65
2021/12/11 03:17:09;;;;;;;;;;;;;;;;;;1039747;28;3783;-66
2021/12/11 03:17:40;;;;;;;;;;;;;;;;;;1040063;28;4033;-66
2021/12/11 03:18:10;;;;;;;;;;;;;;;;;;1041053;28;2011;-64
2021/12/11 03:18:41;;;;;;;;;;;;;;;;;;1041162;28;3893;-64
2021/12/11 03:19:12;;;;;;;;;;;;;;;;;;1041219;28;1893;-64
2021/12/11 03:19:45;;;;;;;;;;;;;;;;;;1035002;28;4059;-65
2021/12/11 03:20:17;;;;;;;;;;;;;;;;;;1035436;28;2816;-65
2021/12/11 03:20:48;;;;;;;;;;;;;;;;;;1036680;28;3873;-64
2021/12/11 03:21:18;;;;;;;;;;;;;;;;;;1035962;28;2010;-64
2021/12/11 03:21:50;;;;;;;;;;;;;;;;;;1038206;28;3834;-65
2021/12/11 03:22:23;;;;;;;;;;;;;;;;;;1040711;28;1735;-65
2021/12/11 03:22:53;;;;;;;;;;;;;;;;;;1040736;28;4191;-64
2021/12/11 03:23:23;;;;;;;;;;;;;;;;;;1036751;28;1892;-64
2021/12/11 03:23:54;;;;;;;;;;;;;;;;;;1036161;28;4107;-64
2021/12/11 03:24:26;;;;;;;;;;;;;;;;;;1035178;28;1804;-66
2021/12/11 03:25:03;;;;;;;;;;;;;;;;;;1036196;28;4062;-65
2021/12/11 03:25:34;;;;;;;;;;;;;;;;;;1039118;28;2461;-64
2021/12/11 03:26:04;;;;;;;;;;;;;;;;;;1040047;28;4047;-64
2021/12/11 03:26:35;;;;;;;;;;;;;;;;;;1040901;28;1784;-66
2021/12/11 03:27:06;;;;;;;;;;;;;;;;;;1040694;28;3936;-65
2021/12/11 03:27:36;;;;;;;;;;;;;;;;;;1040054;28;2804;-65
2021/12/11 03:28:08;;;;;;;;;;;;;;;;;;1040182;28;4136;-64
2021/12/11 03:28:38;;;;;;;;;;;;;;;;;;1041861;28;1930;-65
2021/12/11 03:29:10;;;;;;;;;;;;;;;;;;1040754;28;4013;-65
2021/12/11 03:29:41;;;;;;;;;;;;;;;;;;1039556;28;4041;-65
2021/12/11 03:30:13;;;;;;;;;;;;;;;;;;1040661;28;1833;-65
2021/12/11 03:30:46;;;;;;;;;;;;;;;;;;1039410;28;4031;-65
2021/12/11 03:31:16;;;;;;;;;;;;;;;;;;1040214;28;2309;-65
2021/12/11 03:31:47;;;;;;;;;;;;;;;;;;1038880;28;4064;-66
2021/12/11 03:32:18;;;;;;;;;;;;;;;;;;1041085;28;1985;-65
2021/12/11 03:32:53;;;;;;;;;;;;;;;;;;1040528;28;3881;-66
2021/12/11 03:33:32;;;;;;;;;;;;;;;;;;1044418;28;1791;-65
2021/12/11 03:34:05;;;;;;;;;;;;;;;;;;1043628;28;4903;-65
2021/12/11 03:34:36;;;;;;;;;;;;;;;;;;1044246;28;1899;-66
2021/12/11 03:35:07;;;;;;;;;;;;;;;;;;1040853;28;4226;-64
2021/12/11 03:35:39;;;;;;;;;;;;;;;;;;1040830;28;2039;-66
2021/12/11 03:36:10;;;;;;;;;;;;;;;;;;1040555;28;3824;-65
2021/12/11 03:36:41;;;;;;;;;;;;;;;;;;1040501;28;4041;-66
2021/12/11 03:37:12;;;;;;;;;;;;;;;;;;1040859;28;1830;-65
2021/12/11 03:37:43;;;;;;;;;;;;;;;;;;1040047;28;3900;-64
2021/12/11 03:38:14;;;;;;;;;;;;;;;;;;1041797;28;1750;-65
2021/12/11 03:38:46;;;;;;;;;;;;;;;;;;1040032;28;3940;-65
2021/12/11 03:39:19;;;;;;;;;;;;;;;;;;1035668;28;1800;-65
2021/12/11 03:39:51;;;;;;;;;;;;;;;;;;1035206;28;3820;-65
2021/12/11 03:40:22;;;;;;;;;;;;;;;;;;1031318;28;1631;-65
2021/12/11 03:40:52;;;;;;;;;;;;;;;;;;1030269;28;4063;-65
2021/12/11 03:41:23;;;;;;;;;;;;;;;;;;1031126;28;1829;-64
2021/12/11 03:41:55;;;;;;;;;;;;;;;;;;1031394;28;4110;-65
2021/12/11 03:42:34;;;;;;;;;;;;;;;;;;1039937;28;2825;-65
2021/12/11 03:43:07;;;;;;;;;;;;;;;;;;1039389;28;3926;-65
2021/12/11 03:43:37;;;;;;;;;;;;;;;;;;1041275;28;1733;-66
2021/12/11 03:44:08;;;;;;;;;;;;;;;;;;1039910;28;3865;-66
2021/12/11 03:44:39;;;;;;;;;;;;;;;;;;1041669;28;4047;-66
2021/12/11 03:45:12;;;;;;;;;;;;;;;;;;1039462;28;2571;-64
2021/12/11 03:45:44;;;;;;;;;;;;;;;;;;1039193;28;3804;-64
2021/12/11 03:46:14;;;;;;;;;;;;;;;;;;1040269;28;1911;-65
2021/12/11 03:46:46;;;;;;;;;;;;;;;;;;1039811;28;3900;-66
2021/12/11 03:47:21;;;;;;;;;;;;;;;;;;1040376;28;1732;-65
2021/12/11 03:47:54;;;;;;;;;;;;;;;;;;1039099;28;3929;-66
2021/12/11 03:48:28;;;;;;;;;;;;;;;;;;1040600;28;1931;-66
2021/12/11 03:49:00;;;;;;;;;;;;;;;;;;1040647;28;4088;-65
2021/12/11 03:49:31;;;;;;;;;;;;;;;;;;1039285;28;2607;-65
2021/12/11 03:50:03;;;;;;;;;;;;;;;;;;1039971;28;4089;-65
2021/12/11 03:50:34;;;;;;;;;;;;;;;;;;1039988;28;2072;-66
2021/12/11 03:51:06;;;;;;;;;;;;;;;;;;1040409;28;3936;-66
2021/12/11 03:51:39;;;;;;;;;;;;;;;;;;1040189;28;1869;-65
2021/12/11 03:52:10;;;;;;;;;;;;;;;;;;1040233;28;3799;-66
2021/12/11 03:52:41;;;;;;;;;;;;;;;;;;1040441;28;4122;-64
2021/12/11 03:53:13;;;;;;;;;;;;;;;;;;1040463;28;1707;-64
2021/12/11 03:53:43;;;;;;;;;;;;;;;;;;1039838;28;3877;-65
2021/12/11 03:54:16;;;;;;;;;;;;;;;;;;1041369;28;1763;-65
2021/12/11 03:54:47;;;;;;;;;;;;;;;;;;1035881;28;4147;-65
2021/12/11 03:55:23;;;;;;;;;;;;;;;;;;1034934;28;2534;-64
2021/12/11 03:55:58;;;;;;;;;;;;;;;;;;1035797;28;3859;-65
2021/12/11 03:56:28;;;;;;;;;;;;;;;;;;1037140;28;1980;-66
2021/12/11 03:56:59;;;;;;;;;;;;;;;;;;1041008;28;4099;-65